sensor_id;sensor_type;location;lat;lon;timestamp;pressure;altitude;pressure_sealevel;temperature;humidity
17649;BME280;8943;51.110;-4.158;2022-07-26T00:01:42;101548.00;;;21.46;47.36
17649;BME280;8943;51.110;-4.158;2022-07-26T00:04:12;101547.31;;;21.44;47.27
17649;BME280;8943;51.110;-4.158;2022-07-26T00:06:41;101549.19;;;21.44;47.23
17649;BME280;8943;51.110;-4.158;2022-07-26T00:09:11;101555.44;;;21.44;47.11
17649;BME280;8943;51.110;-4.158;2022-07-26T00:11:39;101554.25;;;21.47;47.11
17649;BME280;8943;51.110;-4.158;2022-07-26T00:14:08;101554.25;;;21.47;46.94
17649;BME280;8943;51.110;-4.158;2022-07-26T00:16:41;101562.56;;;21.45;46.94
17649;BME280;8943;51.110;-4.158;2022-07-26T00:19:12;101555.28;;;21.46;47.04
17649;BME280;8943;51.110;-4.158;2022-07-26T00:21:41;101552.44;;;21.47;46.93
17649;BME280;8943;51.110;-4.158;2022-07-26T00:24:09;101553.94;;;21.50;46.83
17649;BME280;8943;51.110;-4.158;2022-07-26T00:26:38;101548.34;;;21.43;47.15
17649;BME280;8943;51.110;-4.158;2022-07-26T00:31:35;101544.06;;;21.41;46.95
17649;BME280;8943;51.110;-4.158;2022-07-26T00:34:05;101546.75;;;21.32;46.89
17649;BME280;8943;51.110;-4.158;2022-07-26T00:37:03;101552.47;;;21.29;46.71
17649;BME280;8943;51.110;-4.158;2022-07-26T00:39:32;101549.06;;;21.27;46.80
17649;BME280;8943;51.110;-4.158;2022-07-26T00:42:01;101551.41;;;21.22;46.94
17649;BME280;8943;51.110;-4.158;2022-07-26T00:44:42;101548.03;;;21.20;46.95
17649;BME280;8943;51.110;-4.158;2022-07-26T00:47:12;101552.78;;;21.18;46.91
17649;BME280;8943;51.110;-4.158;2022-07-26T00:49:41;101544.94;;;21.15;47.08
17649;BME280;8943;51.110;-4.158;2022-07-26T00:52:11;101552.41;;;21.13;47.01
17649;BME280;8943;51.110;-4.158;2022-07-26T00:54:44;101547.13;;;21.12;47.05
17649;BME280;8943;51.110;-4.158;2022-07-26T00:57:13;101547.59;;;20.99;47.37
17649;BME280;8943;51.110;-4.158;2022-07-26T00:59:42;101537.72;;;20.98;47.29
17649;BME280;8943;51.110;-4.158;2022-07-26T01:02:10;101548.19;;;20.93;47.46
17649;BME280;8943;51.110;-4.158;2022-07-26T01:04:41;101541.09;;;20.92;47.43
17649;BME280;8943;51.110;-4.158;2022-07-26T01:07:14;101548.53;;;20.90;47.49
17649;BME280;8943;51.110;-4.158;2022-07-26T01:09:43;101550.72;;;20.86;47.71
17649;BME280;8943;51.110;-4.158;2022-07-26T01:12:13;101545.47;;;20.85;48.12
17649;BME280;8943;51.110;-4.158;2022-07-26T01:15:11;101536.81;;;20.81;48.14
17649;BME280;8943;51.110;-4.158;2022-07-26T01:17:41;101537.09;;;20.78;48.22
17649;BME280;8943;51.110;-4.158;2022-07-26T01:20:11;101541.31;;;20.72;48.28
17649;BME280;8943;51.110;-4.158;2022-07-26T01:22:42;101541.47;;;20.71;48.25
17649;BME280;8943;51.110;-4.158;2022-07-26T01:25:26;101535.22;;;20.70;48.39
17649;BME280;8943;51.110;-4.158;2022-07-26T01:28:34;101528.72;;;20.63;48.39
17649;BME280;8943;51.110;-4.158;2022-07-26T01:31:07;101539.53;;;20.63;48.54
17649;BME280;8943;51.110;-4.158;2022-07-26T01:33:36;101534.09;;;20.55;48.66
17649;BME280;8943;51.110;-4.158;2022-07-26T01:36:05;101551.66;;;20.51;48.71
17649;BME280;8943;51.110;-4.158;2022-07-26T01:38:36;101543.13;;;20.46;48.91
17649;BME280;8943;51.110;-4.158;2022-07-26T01:41:05;101543.44;;;20.43;48.73
17649;BME280;8943;51.110;-4.158;2022-07-26T01:43:33;101533.22;;;20.37;49.18
17649;BME280;8943;51.110;-4.158;2022-07-26T01:46:02;101537.56;;;20.29;49.20
17649;BME280;8943;51.110;-4.158;2022-07-26T01:48:34;101539.88;;;20.24;49.50
17649;BME280;8943;51.110;-4.158;2022-07-26T01:51:06;101535.66;;;20.22;49.45
17649;BME280;8943;51.110;-4.158;2022-07-26T01:56:52;101537.41;;;20.13;49.72
17649;BME280;8943;51.110;-4.158;2022-07-26T01:59:34;101529.94;;;20.07;49.92
17649;BME280;8943;51.110;-4.158;2022-07-26T02:02:03;101534.78;;;20.03;50.01
17649;BME280;8943;51.110;-4.158;2022-07-26T02:04:33;101520.88;;;19.98;50.00
17649;BME280;8943;51.110;-4.158;2022-07-26T02:07:19;101527.94;;;19.91;50.24
17649;BME280;8943;51.110;-4.158;2022-07-26T02:09:48;101530.22;;;19.86;50.39
17649;BME280;8943;51.110;-4.158;2022-07-26T02:12:20;101531.69;;;19.80;50.37
17649;BME280;8943;51.110;-4.158;2022-07-26T02:14:49;101539.41;;;19.75;50.45
17649;BME280;8943;51.110;-4.158;2022-07-26T02:17:18;101546.13;;;19.71;50.43
17649;BME280;8943;51.110;-4.158;2022-07-26T02:19:46;101548.97;;;19.70;50.60
17649;BME280;8943;51.110;-4.158;2022-07-26T02:22:15;101546.03;;;19.63;50.73
17649;BME280;8943;51.110;-4.158;2022-07-26T02:24:50;101541.47;;;19.64;50.73
17649;BME280;8943;51.110;-4.158;2022-07-26T02:27:32;101547.19;;;19.61;50.91
17649;BME280;8943;51.110;-4.158;2022-07-26T02:30:05;101549.34;;;19.57;51.17
17649;BME280;8943;51.110;-4.158;2022-07-26T02:32:35;101540.50;;;19.55;51.33
17649;BME280;8943;51.110;-4.158;2022-07-26T02:35:05;101548.44;;;19.56;51.30
17649;BME280;8943;51.110;-4.158;2022-07-26T02:37:33;101549.34;;;19.57;51.52
17649;BME280;8943;51.110;-4.158;2022-07-26T02:40:11;101543.34;;;19.63;51.35
17649;BME280;8943;51.110;-4.158;2022-07-26T02:42:57;101537.22;;;19.61;51.34
17649;BME280;8943;51.110;-4.158;2022-07-26T02:45:34;101541.47;;;19.64;51.49
17649;BME280;8943;51.110;-4.158;2022-07-26T02:48:04;101547.75;;;19.64;51.46
17649;BME280;8943;51.110;-4.158;2022-07-26T02:50:33;101544.88;;;19.66;51.41
17649;BME280;8943;51.110;-4.158;2022-07-26T02:53:03;101550.84;;;19.69;51.52
17649;BME280;8943;51.110;-4.158;2022-07-26T02:55:32;101541.13;;;19.76;51.67
17649;BME280;8943;51.110;-4.158;2022-07-26T02:58:04;101538.81;;;19.82;51.73
17649;BME280;8943;51.110;-4.158;2022-07-26T03:00:33;101540.50;;;19.83;52.05
17649;BME280;8943;51.110;-4.158;2022-07-26T03:03:01;101543.06;;;19.84;51.68
17649;BME280;8943;51.110;-4.158;2022-07-26T03:05:30;101553.03;;;19.84;51.90
17649;BME280;8943;51.110;-4.158;2022-07-26T03:08:01;101544.63;;;19.87;51.89
17649;BME280;8943;51.110;-4.158;2022-07-26T03:10:30;101545.00;;;19.92;51.62
17649;BME280;8943;51.110;-4.158;2022-07-26T03:13:00;101547.31;;;19.87;52.00
17649;BME280;8943;51.110;-4.158;2022-07-26T03:15:35;101552.78;;;19.95;51.62
17649;BME280;8943;51.110;-4.158;2022-07-26T03:18:04;101550.09;;;19.95;52.01
17649;BME280;8943;51.110;-4.158;2022-07-26T03:20:33;101554.34;;;19.97;52.13
17649;BME280;8943;51.110;-4.158;2022-07-26T03:23:05;101555.03;;;19.99;52.05
17649;BME280;8943;51.110;-4.158;2022-07-26T03:25:37;101552.88;;;20.03;52.19
17649;BME280;8943;51.110;-4.158;2022-07-26T03:28:21;101550.94;;;20.13;51.89
17649;BME280;8943;51.110;-4.158;2022-07-26T03:30:52;101548.16;;;20.05;52.09
17649;BME280;8943;51.110;-4.158;2022-07-26T03:33:21;101545.38;;;20.15;51.88
17649;BME280;8943;51.110;-4.158;2022-07-26T03:35:54;101546.56;;;20.12;52.01
17649;BME280;8943;51.110;-4.158;2022-07-26T03:38:24;101547.63;;;20.19;51.95
17649;BME280;8943;51.110;-4.158;2022-07-26T03:40:53;101545.63;;;20.21;51.88
17649;BME280;8943;51.110;-4.158;2022-07-26T03:43:23;101556.13;;;20.24;52.14
17649;BME280;8943;51.110;-4.158;2022-07-26T03:45:53;101549.72;;;20.25;51.88
17649;BME280;8943;51.110;-4.158;2022-07-26T03:48:24;101551.03;;;20.21;52.14
17649;BME280;8943;51.110;-4.158;2022-07-26T03:50:59;101551.03;;;20.21;51.97
17649;BME280;8943;51.110;-4.158;2022-07-26T03:53:30;101553.41;;;20.24;52.04
17649;BME280;8943;51.110;-4.158;2022-07-26T03:56:00;101558.81;;;20.24;51.99
17649;BME280;8943;51.110;-4.158;2022-07-26T03:58:46;101547.69;;;20.27;52.14
17649;BME280;8943;51.110;-4.158;2022-07-26T04:01:25;101545.91;;;20.36;52.09
17649;BME280;8943;51.110;-4.158;2022-07-26T04:03:55;101555.34;;;20.32;52.27
17649;BME280;8943;51.110;-4.158;2022-07-26T04:06:25;101559.13;;;20.39;51.93
17649;BME280;8943;51.110;-4.158;2022-07-26T04:08:53;101558.16;;;20.40;51.91
17649;BME280;8943;51.110;-4.158;2022-07-26T04:11:23;101564.06;;;20.44;51.93
17649;BME280;8943;51.110;-4.158;2022-07-26T04:13:54;101546.13;;;20.43;52.18
17649;BME280;8943;51.110;-4.158;2022-07-26T04:16:24;101560.78;;;20.50;51.99
17649;BME280;8943;51.110;-4.158;2022-07-26T04:18:53;101553.81;;;20.47;51.99
17649;BME280;8943;51.110;-4.158;2022-07-26T04:21:23;101555.38;;;20.50;51.72
17649;BME280;8943;51.110;-4.158;2022-07-26T04:23:51;101555.50;;;20.48;51.88
17649;BME280;8943;51.110;-4.158;2022-07-26T04:26:20;101548.78;;;20.52;51.65
17649;BME280;8943;51.110;-4.158;2022-07-26T04:28:49;101538.41;;;20.48;51.74
17649;BME280;8943;51.110;-4.158;2022-07-26T04:31:18;101550.94;;;20.49;51.63
17649;BME280;8943;51.110;-4.158;2022-07-26T04:33:53;101565.50;;;20.48;51.73
17649;BME280;8943;51.110;-4.158;2022-07-26T04:36:22;101570.75;;;20.49;51.68
17649;BME280;8943;51.110;-4.158;2022-07-26T04:38:51;101567.34;;;20.47;51.79
17649;BME280;8943;51.110;-4.158;2022-07-26T04:41:19;101558.53;;;20.45;51.61
17649;BME280;8943;51.110;-4.158;2022-07-26T04:43:48;101565.94;;;20.43;51.95
17649;BME280;8943;51.110;-4.158;2022-07-26T04:48:54;101569.09;;;20.39;51.53
17649;BME280;8943;51.110;-4.158;2022-07-26T04:51:24;101575.22;;;20.41;51.48
17649;BME280;8943;51.110;-4.158;2022-07-26T04:53:56;101580.94;;;20.38;51.52
17649;BME280;8943;51.110;-4.158;2022-07-26T04:56:25;101580.66;;;20.41;51.34
17649;BME280;8943;51.110;-4.158;2022-07-26T04:58:56;101585.34;;;20.39;51.57
17649;BME280;8943;51.110;-4.158;2022-07-26T05:01:46;101587.03;;;20.40;51.52
17649;BME280;8943;51.110;-4.158;2022-07-26T05:04:16;101582.63;;;20.39;51.54
17649;BME280;8943;51.110;-4.158;2022-07-26T05:06:45;101578.91;;;20.40;51.46
17649;BME280;8943;51.110;-4.158;2022-07-26T05:09:13;101578.78;;;20.41;51.45
17649;BME280;8943;51.110;-4.158;2022-07-26T05:11:42;101587.28;;;20.46;50.97
17649;BME280;8943;51.110;-4.158;2022-07-26T05:14:12;101584.88;;;20.43;51.14
17649;BME280;8943;51.110;-4.158;2022-07-26T05:16:49;101597.97;;;20.48;51.11
17649;BME280;8943;51.110;-4.158;2022-07-26T05:19:21;101594.25;;;20.49;50.83
17649;BME280;8943;51.110;-4.158;2022-07-26T05:21:50;101596.97;;;20.49;50.78
17649;BME280;8943;51.110;-4.158;2022-07-26T05:24:18;101594.13;;;20.50;50.64
17649;BME280;8943;51.110;-4.158;2022-07-26T05:26:49;101590.41;;;20.51;50.29
17649;BME280;8943;51.110;-4.158;2022-07-26T05:29:33;101597.50;;;20.52;49.85
17649;BME280;8943;51.110;-4.158;2022-07-26T05:32:04;101597.50;;;20.52;49.98
17649;BME280;8943;51.110;-4.158;2022-07-26T05:34:40;101611.53;;;20.48;49.93
17649;BME280;8943;51.110;-4.158;2022-07-26T05:37:09;101606.03;;;20.57;49.79
17649;BME280;8943;51.110;-4.158;2022-07-26T05:39:38;101601.44;;;20.58;49.82
17649;BME280;8943;51.110;-4.158;2022-07-26T05:42:07;101596.75;;;20.60;49.68
17649;BME280;8943;51.110;-4.158;2022-07-26T05:44:37;101604.25;;;20.66;49.41
17649;BME280;8943;51.110;-4.158;2022-07-26T05:47:15;101606.66;;;20.69;49.05
17649;BME280;8943;51.110;-4.158;2022-07-26T05:49:45;101607.53;;;20.78;49.14
17649;BME280;8943;51.110;-4.158;2022-07-26T05:52:13;101623.94;;;20.76;48.90
17649;BME280;8943;51.110;-4.158;2022-07-26T05:54:42;101627.56;;;20.85;48.76
17649;BME280;8943;51.110;-4.158;2022-07-26T05:57:11;101623.38;;;20.91;48.53
17649;BME280;8943;51.110;-4.158;2022-07-26T05:59:40;101622.75;;;20.97;48.62
17649;BME280;8943;51.110;-4.158;2022-07-26T06:02:10;101624.97;;;21.01;48.46
17649;BME280;8943;51.110;-4.158;2022-07-26T06:04:39;101629.72;;;20.99;48.42
17649;BME280;8943;51.110;-4.158;2022-07-26T06:07:27;101630.78;;;21.06;48.07
17649;BME280;8943;51.110;-4.158;2022-07-26T06:09:57;101633.00;;;21.11;48.44
17649;BME280;8943;51.110;-4.158;2022-07-26T06:12:26;101629.16;;;21.22;47.84
17649;BME280;8943;51.110;-4.158;2022-07-26T06:14:54;101639.22;;;21.29;47.46
17649;BME280;8943;51.110;-4.158;2022-07-26T06:17:23;101629.53;;;21.27;47.47
17649;BME280;8943;51.110;-4.158;2022-07-26T06:19:56;101635.81;;;21.27;47.71
17649;BME280;8943;51.110;-4.158;2022-07-26T06:22:26;101630.56;;;21.26;47.54
17649;BME280;8943;51.110;-4.158;2022-07-26T06:24:55;101630.38;;;21.27;47.48
17649;BME280;8943;51.110;-4.158;2022-07-26T06:27:23;101635.53;;;21.30;47.30
17649;BME280;8943;51.110;-4.158;2022-07-26T06:29:54;101628.38;;;21.29;47.35
17649;BME280;8943;51.110;-4.158;2022-07-26T06:32:22;101636.91;;;21.34;47.05
17649;BME280;8943;51.110;-4.158;2022-07-26T06:34:51;101641.84;;;21.39;47.13
17649;BME280;8943;51.110;-4.158;2022-07-26T06:37:20;101644.09;;;21.44;47.31
17649;BME280;8943;51.110;-4.158;2022-07-26T06:39:50;101646.16;;;21.50;47.13
17649;BME280;8943;51.110;-4.158;2022-07-26T06:42:19;101642.81;;;21.64;47.08
17649;BME280;8943;51.110;-4.158;2022-07-26T06:44:48;101647.63;;;21.78;47.31
17649;BME280;8943;51.110;-4.158;2022-07-26T06:47:17;101643.28;;;21.94;47.07
17649;BME280;8943;51.110;-4.158;2022-07-26T06:49:46;101646.03;;;22.02;46.70
17649;BME280;8943;51.110;-4.158;2022-07-26T06:52:14;101650.44;;;22.03;46.22
17649;BME280;8943;51.110;-4.158;2022-07-26T06:54:43;101657.25;;;22.07;46.53
17649;BME280;8943;51.110;-4.158;2022-07-26T06:57:14;101675.88;;;22.10;46.08
17649;BME280;8943;51.110;-4.158;2022-07-26T06:59:43;101666.13;;;22.17;45.70
17649;BME280;8943;51.110;-4.158;2022-07-26T07:02:12;101673.25;;;22.18;45.48
17649;BME280;8943;51.110;-4.158;2022-07-26T07:04:44;101675.78;;;22.20;45.22
17649;BME280;8943;51.110;-4.158;2022-07-26T07:07:13;101679.34;;;22.20;44.66
17649;BME280;8943;51.110;-4.158;2022-07-26T07:09:42;101672.56;;;22.24;44.68
17649;BME280;8943;51.110;-4.158;2022-07-26T07:12:10;101679.38;;;22.28;44.38
17649;BME280;8943;51.110;-4.158;2022-07-26T07:14:42;101686.34;;;22.31;43.65
17649;BME280;8943;51.110;-4.158;2022-07-26T07:17:11;101676.34;;;22.31;42.75
17649;BME280;8943;51.110;-4.158;2022-07-26T07:19:47;101675.31;;;22.32;42.34
17649;BME280;8943;51.110;-4.158;2022-07-26T07:22:15;101689.25;;;22.38;42.12
17649;BME280;8943;51.110;-4.158;2022-07-26T07:24:44;101684.69;;;22.46;42.18
17649;BME280;8943;51.110;-4.158;2022-07-26T07:27:14;101687.94;;;22.50;42.34
17649;BME280;8943;51.110;-4.158;2022-07-26T07:30:03;101702.53;;;22.57;42.12
17649;BME280;8943;51.110;-4.158;2022-07-26T07:32:36;101693.34;;;22.58;41.55
17649;BME280;8943;51.110;-4.158;2022-07-26T07:35:06;101704.72;;;22.53;41.65
17649;BME280;8943;51.110;-4.158;2022-07-26T07:37:39;101717.94;;;22.40;42.19
17649;BME280;8943;51.110;-4.158;2022-07-26T07:40:20;101701.44;;;22.33;42.54
17649;BME280;8943;51.110;-4.158;2022-07-26T07:42:49;101681.59;;;22.33;42.62
17649;BME280;8943;51.110;-4.158;2022-07-26T07:45:19;101678.03;;;22.32;43.23
17649;BME280;8943;51.110;-4.158;2022-07-26T07:47:48;101683.13;;;22.44;43.18
17649;BME280;8943;51.110;-4.158;2022-07-26T07:50:18;101676.69;;;22.53;43.12
17649;BME280;8943;51.110;-4.158;2022-07-26T07:52:53;101682.81;;;22.63;42.63
17649;BME280;8943;51.110;-4.158;2022-07-26T07:55:26;101672.31;;;22.68;42.41
17649;BME280;8943;51.110;-4.158;2022-07-26T07:58:21;101680.44;;;22.68;41.51
17649;BME280;8943;51.110;-4.158;2022-07-26T08:00:51;101701.53;;;22.66;41.74
17649;BME280;8943;51.110;-4.158;2022-07-26T08:03:21;101697.75;;;22.59;41.86
17649;BME280;8943;51.110;-4.158;2022-07-26T08:06:05;101703.53;;;22.56;42.23
17649;BME280;8943;51.110;-4.158;2022-07-26T08:08:37;101698.41;;;22.45;41.80
17649;BME280;8943;51.110;-4.158;2022-07-26T08:11:25;101714.84;;;22.35;42.32
17649;BME280;8943;51.110;-4.158;2022-07-26T08:13:59;101712.97;;;22.27;42.30
17649;BME280;8943;51.110;-4.158;2022-07-26T08:16:31;101714.66;;;22.28;42.44
17649;BME280;8943;51.110;-4.158;2022-07-26T08:19:00;101721.44;;;22.24;42.45
17649;BME280;8943;51.110;-4.158;2022-07-26T08:21:29;101720.81;;;22.30;42.74
17649;BME280;8943;51.110;-4.158;2022-07-26T08:24:04;101714.00;;;22.26;42.96
17649;BME280;8943;51.110;-4.158;2022-07-26T08:26:45;101723.16;;;22.33;42.91
17649;BME280;8943;51.110;-4.158;2022-07-26T08:29:18;101721.50;;;22.41;42.96
17649;BME280;8943;51.110;-4.158;2022-07-26T08:31:59;101715.09;;;22.50;43.00
17649;BME280;8943;51.110;-4.158;2022-07-26T08:34:28;101719.50;;;22.67;42.98
17649;BME280;8943;51.110;-4.158;2022-07-26T08:36:57;101715.44;;;22.71;42.52
17649;BME280;8943;51.110;-4.158;2022-07-26T08:39:43;101706.28;;;22.72;42.42
17649;BME280;8943;51.110;-4.158;2022-07-26T08:42:12;101710.50;;;22.67;42.12
17649;BME280;8943;51.110;-4.158;2022-07-26T08:44:42;101722.91;;;22.69;42.30
17649;BME280;8943;51.110;-4.158;2022-07-26T08:47:16;101717.84;;;22.74;42.43
17649;BME280;8943;51.110;-4.158;2022-07-26T08:50:09;101726.31;;;22.87;42.06
17649;BME280;8943;51.110;-4.158;2022-07-26T08:52:59;101738.75;;;22.98;41.94
17649;BME280;8943;51.110;-4.158;2022-07-26T08:55:34;101730.63;;;23.15;41.77
17649;BME280;8943;51.110;-4.158;2022-07-26T08:58:24;101735.19;;;23.22;41.42
17649;BME280;8943;51.110;-4.158;2022-07-26T09:01:03;101737.91;;;23.22;40.24
17649;BME280;8943;51.110;-4.158;2022-07-26T09:03:34;101742.84;;;23.19;41.08
17649;BME280;8943;51.110;-4.158;2022-07-26T09:06:11;101732.50;;;23.14;40.78
17649;BME280;8943;51.110;-4.158;2022-07-26T09:08:48;101728.06;;;23.13;40.93
17649;BME280;8943;51.110;-4.158;2022-07-26T09:11:35;101731.13;;;23.10;41.02
17649;BME280;8943;51.110;-4.158;2022-07-26T09:14:05;101728.06;;;23.05;40.90
17649;BME280;8943;51.110;-4.158;2022-07-26T09:16:36;101724.50;;;22.96;40.51
17649;BME280;8943;51.110;-4.158;2022-07-26T09:19:18;101733.16;;;22.92;41.16
17649;BME280;8943;51.110;-4.158;2022-07-26T09:21:49;101733.84;;;22.94;41.07
17649;BME280;8943;51.110;-4.158;2022-07-26T09:24:32;101738.59;;;23.08;41.22
17649;BME280;8943;51.110;-4.158;2022-07-26T09:27:07;101738.09;;;23.21;41.14
17649;BME280;8943;51.110;-4.158;2022-07-26T09:29:44;101738.75;;;23.23;40.66
17649;BME280;8943;51.110;-4.158;2022-07-26T09:32:16;101732.28;;;23.32;40.92
17649;BME280;8943;51.110;-4.158;2022-07-26T09:34:50;101733.66;;;23.36;40.01
17649;BME280;8943;51.110;-4.158;2022-07-26T09:37:34;101742.13;;;23.49;40.24
17649;BME280;8943;51.110;-4.158;2022-07-26T09:40:05;101737.16;;;23.61;40.23
17649;BME280;8943;51.110;-4.158;2022-07-26T09:42:37;101746.91;;;23.63;39.51
17649;BME280;8943;51.110;-4.158;2022-07-26T09:45:14;101746.19;;;23.61;38.23
17649;BME280;8943;51.110;-4.158;2022-07-26T09:47:44;101751.16;;;23.50;38.73
17649;BME280;8943;51.110;-4.158;2022-07-26T09:50:15;101740.97;;;23.35;37.95
17649;BME280;8943;51.110;-4.158;2022-07-26T09:53:02;101740.81;;;23.21;37.86
17649;BME280;8943;51.110;-4.158;2022-07-26T09:55:34;101747.09;;;23.13;37.90
17649;BME280;8943;51.110;-4.158;2022-07-26T09:58:11;101756.59;;;23.17;38.78
17649;BME280;8943;51.110;-4.158;2022-07-26T10:00:50;101746.59;;;23.34;38.37
17649;BME280;8943;51.110;-4.158;2022-07-26T10:03:35;101747.91;;;23.54;38.17
17649;BME280;8943;51.110;-4.158;2022-07-26T10:06:07;101747.38;;;23.75;37.83
17649;BME280;8943;51.110;-4.158;2022-07-26T10:08:37;101752.47;;;23.86;37.97
17649;BME280;8943;51.110;-4.158;2022-07-26T10:11:07;101757.16;;;24.01;37.91
17649;BME280;8943;51.110;-4.158;2022-07-26T10:13:36;101759.16;;;24.15;37.33
17649;BME280;8943;51.110;-4.158;2022-07-26T10:16:27;101754.72;;;24.22;36.86
17649;BME280;8943;51.110;-4.158;2022-07-26T10:19:00;101762.16;;;24.28;36.71
17649;BME280;8943;51.110;-4.158;2022-07-26T10:21:32;101767.44;;;24.38;36.40
17649;BME280;8943;51.110;-4.158;2022-07-26T10:24:23;101767.41;;;24.46;36.31
17649;BME280;8943;51.110;-4.158;2022-07-26T10:26:51;101764.44;;;24.56;36.19
17649;BME280;8943;51.110;-4.158;2022-07-26T10:29:22;101757.97;;;24.57;35.61
17649;BME280;8943;51.110;-4.158;2022-07-26T10:32:17;101758.63;;;24.59;35.78
17649;BME280;8943;51.110;-4.158;2022-07-26T10:34:47;101766.25;;;24.63;35.95
17649;BME280;8943;51.110;-4.158;2022-07-26T10:37:26;101771.84;;;24.70;35.55
17649;BME280;8943;51.110;-4.158;2022-07-26T10:40:19;101762.94;;;24.76;35.77
17649;BME280;8943;51.110;-4.158;2022-07-26T10:42:48;101765.13;;;24.81;35.31
17649;BME280;8943;51.110;-4.158;2022-07-26T10:45:46;101774.16;;;24.81;35.49
17649;BME280;8943;51.110;-4.158;2022-07-26T10:48:17;101775.53;;;24.77;35.11
17649;BME280;8943;51.110;-4.158;2022-07-26T10:50:47;101774.50;;;24.78;35.33
17649;BME280;8943;51.110;-4.158;2022-07-26T10:53:19;101766.53;;;24.77;35.38
17649;BME280;8943;51.110;-4.158;2022-07-26T10:55:51;101775.19;;;24.80;35.36
17649;BME280;8943;51.110;-4.158;2022-07-26T10:58:41;101777.53;;;24.83;35.26
17649;BME280;8943;51.110;-4.158;2022-07-26T11:01:10;101770.53;;;24.89;35.50
17649;BME280;8943;51.110;-4.158;2022-07-26T11:03:44;101775.75;;;24.99;35.47
17649;BME280;8943;51.110;-4.158;2022-07-26T11:06:17;101779.03;;;25.17;35.35
17649;BME280;8943;51.110;-4.158;2022-07-26T11:08:48;101772.53;;;25.18;34.65
17649;BME280;8943;51.110;-4.158;2022-07-26T11:14:08;101788.50;;;25.29;34.81
17649;BME280;8943;51.110;-4.158;2022-07-26T11:16:40;101788.97;;;25.33;34.59
17649;BME280;8943;51.110;-4.158;2022-07-26T11:19:14;101782.78;;;25.39;34.75
17649;BME280;8943;51.110;-4.158;2022-07-26T11:21:45;101781.47;;;25.50;35.14
17649;BME280;8943;51.110;-4.158;2022-07-26T11:24:16;101790.59;;;25.57;33.53
17649;BME280;8943;51.110;-4.158;2022-07-26T11:26:46;101792.28;;;25.43;33.71
17649;BME280;8943;51.110;-4.158;2022-07-26T11:29:25;101785.97;;;25.42;34.19
17649;BME280;8943;51.110;-4.158;2022-07-26T11:32:15;101784.31;;;25.56;34.13
17649;BME280;8943;51.110;-4.158;2022-07-26T11:35:07;101782.84;;;25.68;33.90
17649;BME280;8943;51.110;-4.158;2022-07-26T11:37:38;101786.69;;;25.74;34.06
17649;BME280;8943;51.110;-4.158;2022-07-26T11:40:11;101776.69;;;25.66;34.26
17649;BME280;8943;51.110;-4.158;2022-07-26T11:42:39;101775.94;;;25.58;34.47
17649;BME280;8943;51.110;-4.158;2022-07-26T11:45:13;101783.84;;;25.53;34.62
17649;BME280;8943;51.110;-4.158;2022-07-26T11:48:06;101781.19;;;25.45;34.35
17649;BME280;8943;51.110;-4.158;2022-07-26T11:50:36;101792.75;;;25.47;34.46
17649;BME280;8943;51.110;-4.158;2022-07-26T11:53:19;101788.78;;;25.34;33.13
17649;BME280;8943;51.110;-4.158;2022-07-26T11:55:51;101781.81;;;25.32;34.04
17649;BME280;8943;51.110;-4.158;2022-07-26T11:58:33;101793.13;;;25.43;34.57
17649;BME280;8943;51.110;-4.158;2022-07-26T12:01:01;101796.22;;;25.40;34.50
17649;BME280;8943;51.110;-4.158;2022-07-26T12:03:33;101785.88;;;25.36;34.60
17649;BME280;8943;51.110;-4.158;2022-07-26T12:06:03;101792.16;;;25.36;35.19
17649;BME280;8943;51.110;-4.158;2022-07-26T12:08:43;101793.69;;;25.39;34.86
17649;BME280;8943;51.110;-4.158;2022-07-26T12:11:38;101791.50;;;25.34;34.70
17649;BME280;8943;51.110;-4.158;2022-07-26T12:14:24;101790.19;;;25.30;34.88
17649;BME280;8943;51.110;-4.158;2022-07-26T12:17:17;101790.03;;;25.09;34.12
17649;BME280;8943;51.110;-4.158;2022-07-26T12:20:16;101791.84;;;24.85;34.86
17649;BME280;8943;51.110;-4.158;2022-07-26T12:22:54;101784.25;;;24.73;34.79
17649;BME280;8943;51.110;-4.158;2022-07-26T12:25:36;101789.28;;;24.61;35.42
17649;BME280;8943;51.110;-4.158;2022-07-26T12:28:41;101780.91;;;24.62;36.38
17649;BME280;8943;51.110;-4.158;2022-07-26T12:31:25;101780.78;;;24.56;36.43
17649;BME280;8943;51.110;-4.158;2022-07-26T12:34:03;101790.84;;;24.55;36.25
17649;BME280;8943;51.110;-4.158;2022-07-26T12:36:32;101776.72;;;24.52;36.06
17649;BME280;8943;51.110;-4.158;2022-07-26T12:39:01;101785.25;;;24.49;35.95
17649;BME280;8943;51.110;-4.158;2022-07-26T12:41:35;101781.69;;;24.40;36.08
17649;BME280;8943;51.110;-4.158;2022-07-26T12:44:08;101789.22;;;24.38;36.15
17649;BME280;8943;51.110;-4.158;2022-07-26T12:46:41;101784.97;;;24.35;35.95
17649;BME280;8943;51.110;-4.158;2022-07-26T12:49:12;101781.53;;;24.33;36.24
17649;BME280;8943;51.110;-4.158;2022-07-26T12:51:41;101790.94;;;24.31;36.33
17649;BME280;8943;51.110;-4.158;2022-07-26T12:54:12;101792.44;;;24.33;36.57
17649;BME280;8943;51.110;-4.158;2022-07-26T12:56:42;101778.50;;;24.28;36.54
17649;BME280;8943;51.110;-4.158;2022-07-26T12:59:15;101789.03;;;24.39;36.29
17649;BME280;8943;51.110;-4.158;2022-07-26T13:01:46;101777.75;;;24.51;36.07
17649;BME280;8943;51.110;-4.158;2022-07-26T13:04:18;101781.41;;;24.66;36.05
17649;BME280;8943;51.110;-4.158;2022-07-26T13:06:48;101786.63;;;24.76;35.65
17649;BME280;8943;51.110;-4.158;2022-07-26T13:09:18;101789.88;;;24.79;34.52
17649;BME280;8943;51.110;-4.158;2022-07-26T13:11:47;101787.06;;;24.87;35.68
17649;BME280;8943;51.110;-4.158;2022-07-26T13:14:17;101786.50;;;24.92;35.88
17649;BME280;8943;51.110;-4.158;2022-07-26T13:16:47;101791.38;;;24.82;36.13
17649;BME280;8943;51.110;-4.158;2022-07-26T13:19:23;101787.00;;;24.96;36.62
17649;BME280;8943;51.110;-4.158;2022-07-26T13:22:00;101774.31;;;25.11;36.86
17649;BME280;8943;51.110;-4.158;2022-07-26T13:24:38;101792.19;;;25.51;36.01
17649;BME280;8943;51.110;-4.158;2022-07-26T13:27:09;101797.47;;;25.90;34.97
17649;BME280;8943;51.110;-4.158;2022-07-26T13:29:40;101791.56;;;26.02;35.07
17649;BME280;8943;51.110;-4.158;2022-07-26T13:32:11;101788.69;;;26.25;34.65
17649;BME280;8943;51.110;-4.158;2022-07-26T13:34:43;101793.84;;;26.64;33.54